sensor_id;sensor_type;location;lat;lon;timestamp;pressure;altitude;pressure_sealevel;temperature;humidity
57779;BME280;43608;49.486;9.640;2022-12-24T00:00:23;98009.34;;;10.00;81.53
57779;BME280;43608;49.486;9.640;2022-12-24T00:00:57;98007.56;;;10.01;81.45
57779;BME280;43608;49.486;9.640;2022-12-24T00:01:27;98004.09;;;9.97;81.38
57779;BME280;43608;49.486;9.640;2022-12-24T00:01:58;98005.81;;;10.00;81.52
57779;BME280;43608;49.486;9.640;2022-12-24T00:02:28;97995.41;;;9.87;81.53
57779;BME280;43608;49.486;9.640;2022-12-24T00:02:58;97997.94;;;9.95;81.52
57779;BME280;43608;49.486;9.640;2022-12-24T00:03:29;98010.22;;;10.01;81.39
57779;BME280;43608;49.486;9.640;2022-12-24T00:03:59;97986.53;;;9.90;81.30
57779;BME280;43608;49.486;9.640;2022-12-24T00:04:30;97998.81;;;9.96;81.57
57779;BME280;43608;49.486;9.640;2022-12-24T00:05:00;98008.44;;;10.01;81.33
57779;BME280;43608;49.486;9.640;2022-12-24T00:05:31;97998.81;;;9.96;81.33
57779;BME280;43608;49.486;9.640;2022-12-24T00:06:05;98002.25;;;10.02;81.37
57779;BME280;43608;49.486;9.640;2022-12-24T00:06:36;97995.31;;;9.92;81.74
57779;BME280;43608;49.486;9.640;2022-12-24T00:07:06;97980.34;;;9.89;81.77
57779;BME280;43608;49.486;9.640;2022-12-24T00:07:37;97988.28;;;9.92;81.46
57779;BME280;43608;49.486;9.640;2022-12-24T00:08:07;97994.38;;;9.99;81.45
57779;BME280;43608;49.486;9.640;2022-12-24T00:08:37;97997.84;;;10.01;81.59
57779;BME280;43608;49.486;9.640;2022-12-24T00:09:10;97976.84;;;9.89;81.90
57779;BME280;43608;49.486;9.640;2022-12-24T00:09:40;97971.56;;;9.87;81.68
57779;BME280;43608;49.486;9.640;2022-12-24T00:10:11;97998.78;;;10.00;81.87
57779;BME280;43608;49.486;9.640;2022-12-24T00:10:41;97981.25;;;9.90;81.92
57779;BME280;43608;49.486;9.640;2022-12-24T00:11:13;97991.78;;;9.96;81.95
57779;BME280;43608;49.486;9.640;2022-12-24T00:11:44;97963.75;;;9.80;82.02
57779;BME280;43608;49.486;9.640;2022-12-24T00:12:14;97965.47;;;9.82;82.02
57779;BME280;43608;49.486;9.640;2022-12-24T00:12:45;97968.97;;;9.83;82.21
57779;BME280;43608;49.486;9.640;2022-12-24T00:13:15;97991.78;;;9.96;82.21
57779;BME280;43608;49.486;9.640;2022-12-24T00:13:46;97998.84;;;9.94;82.12
57779;BME280;43608;49.486;9.640;2022-12-24T00:14:17;97992.69;;;9.92;82.45
57779;BME280;43608;49.486;9.640;2022-12-24T00:14:48;97984.84;;;9.84;82.53
57779;BME280;43608;49.486;9.640;2022-12-24T00:15:18;97994.47;;;9.91;82.39
57779;BME280;43608;49.486;9.640;2022-12-24T00:15:48;97978.66;;;9.85;82.51
57779;BME280;43608;49.486;9.640;2022-12-24T00:16:19;97985.63;;;9.92;82.50
57779;BME280;43608;49.486;9.640;2022-12-24T00:16:49;97954.91;;;9.79;82.43
57779;BME280;43608;49.486;9.640;2022-12-24T00:17:20;97976.91;;;9.86;82.59
57779;BME280;43608;49.486;9.640;2022-12-24T00:17:50;97972.50;;;9.82;82.65
57779;BME280;43608;49.486;9.640;2022-12-24T00:18:21;97991.88;;;9.88;82.57
57779;BME280;43608;49.486;9.640;2022-12-24T00:18:51;97987.44;;;9.89;82.73
57779;BME280;43608;49.486;9.640;2022-12-24T00:19:22;97983.03;;;9.88;82.89
57779;BME280;43608;49.486;9.640;2022-12-24T00:19:53;97986.56;;;9.88;83.07
57779;BME280;43608;49.486;9.640;2022-12-24T00:20:23;97969.06;;;9.75;82.93
57779;BME280;43608;49.486;9.640;2022-12-24T00:20:54;97988.31;;;9.88;82.97
57779;BME280;43608;49.486;9.640;2022-12-24T00:21:24;97983.94;;;9.85;82.95
57779;BME280;43608;49.486;9.640;2022-12-24T00:21:54;97982.22;;;9.83;83.10
57779;BME280;43608;49.486;9.640;2022-12-24T00:22:25;97960.28;;;9.73;83.30
57779;BME280;43608;49.486;9.640;2022-12-24T00:22:55;97957.66;;;9.71;83.57
57779;BME280;43608;49.486;9.640;2022-12-24T00:23:26;97978.66;;;9.85;83.37
57779;BME280;43608;49.486;9.640;2022-12-24T00:23:56;97979.53;;;9.84;83.72
57779;BME280;43608;49.486;9.640;2022-12-24T00:24:26;97981.31;;;9.84;83.89
57779;BME280;43608;49.486;9.640;2022-12-24T00:24:57;97973.44;;;9.79;83.96
57779;BME280;43608;49.486;9.640;2022-12-24T00:25:27;97957.72;;;9.67;83.80
57779;BME280;43608;49.486;9.640;2022-12-24T00:25:57;97980.53;;;9.74;84.15
57779;BME280;43608;49.486;9.640;2022-12-24T00:26:28;97995.47;;;9.81;84.09
57779;BME280;43608;49.486;9.640;2022-12-24T00:26:58;97987.56;;;9.76;84.40
57779;BME280;43608;49.486;9.640;2022-12-24T00:27:29;97963.97;;;9.61;84.32
57779;BME280;43608;49.486;9.640;2022-12-24T00:27:59;97973.56;;;9.68;84.50
57779;BME280;43608;49.486;9.640;2022-12-24T00:28:29;97968.28;;;9.68;84.72
57779;BME280;43608;49.486;9.640;2022-12-24T00:29:00;97989.34;;;9.76;84.61
57779;BME280;43608;49.486;9.640;2022-12-24T00:29:31;97987.59;;;9.75;84.48
57779;BME280;43608;49.486;9.640;2022-12-24T00:30:02;97976.25;;;9.67;84.67
57779;BME280;43608;49.486;9.640;2022-12-24T00:30:32;97985.00;;;9.72;84.94
57779;BME280;43608;49.486;9.640;2022-12-24T00:31:13;97965.75;;;9.59;84.95
57779;BME280;43608;49.486;9.640;2022-12-24T00:31:44;97978.91;;;9.65;85.04
57779;BME280;43608;49.486;9.640;2022-12-24T00:32:14;97959.69;;;9.48;85.29
57779;BME280;43608;49.486;9.640;2022-12-24T00:32:45;97983.31;;;9.65;85.29
57779;BME280;43608;49.486;9.640;2022-12-24T00:33:15;97979.81;;;9.63;85.77
57779;BME280;43608;49.486;9.640;2022-12-24T00:33:45;97984.19;;;9.67;85.51
57779;BME280;43608;49.486;9.640;2022-12-24T00:34:16;97993.00;;;9.66;85.43
57779;BME280;43608;49.486;9.640;2022-12-24T00:34:46;97964.06;;;9.53;85.33
57779;BME280;43608;49.486;9.640;2022-12-24T00:35:17;97967.56;;;9.54;85.41
57779;BME280;43608;49.486;9.640;2022-12-24T00:35:49;97986.84;;;9.65;85.37
57779;BME280;43608;49.486;9.640;2022-12-24T00:36:20;97979.81;;;9.64;85.57
57779;BME280;43608;49.486;9.640;2022-12-24T00:36:51;97989.47;;;9.67;85.15
57779;BME280;43608;49.486;9.640;2022-12-24T00:37:21;97982.47;;;9.63;85.34
57779;BME280;43608;49.486;9.640;2022-12-24T00:37:51;97984.22;;;9.64;85.31
57779;BME280;43608;49.486;9.640;2022-12-24T00:38:22;97953.56;;;9.46;85.18
57779;BME280;43608;49.486;9.640;2022-12-24T00:38:52;97965.84;;;9.50;85.31
57779;BME280;43608;49.486;9.640;2022-12-24T00:39:22;97986.88;;;9.61;85.30
57779;BME280;43608;49.486;9.640;2022-12-24T00:39:53;97986.00;;;9.62;85.39
57779;BME280;43608;49.486;9.640;2022-12-24T00:40:23;97964.94;;;9.52;85.49
57779;BME280;43608;49.486;9.640;2022-12-24T00:41:00;97952.66;;;9.48;85.42
57779;BME280;43608;49.486;9.640;2022-12-24T00:41:31;97973.72;;;9.57;85.35
57779;BME280;43608;49.486;9.640;2022-12-24T00:42:02;97971.06;;;9.54;85.14
57779;BME280;43608;49.486;9.640;2022-12-24T00:42:32;97976.38;;;9.56;85.31
57779;BME280;43608;49.486;9.640;2022-12-24T00:43:02;97982.50;;;9.58;85.23
57779;BME280;43608;49.486;9.640;2022-12-24T00:43:33;97992.19;;;9.61;85.28
57779;BME280;43608;49.486;9.640;2022-12-24T00:44:05;97977.28;;;9.52;85.26
57779;BME280;43608;49.486;9.640;2022-12-24T00:44:35;97964.16;;;9.46;85.74
57779;BME280;43608;49.486;9.640;2022-12-24T00:45:06;97999.25;;;9.60;85.26
57779;BME280;43608;49.486;9.640;2022-12-24T00:45:37;98003.66;;;9.59;85.43
57779;BME280;43608;49.486;9.640;2022-12-24T00:46:07;97989.59;;;9.57;85.43
57779;BME280;43608;49.486;9.640;2022-12-24T00:46:39;97974.72;;;9.46;85.39
57779;BME280;43608;49.486;9.640;2022-12-24T00:47:10;97996.66;;;9.55;85.22
57779;BME280;43608;49.486;9.640;2022-12-24T00:47:40;98008.94;;;9.59;85.23
57779;BME280;43608;49.486;9.640;2022-12-24T00:48:11;98004.53;;;9.60;85.16
57779;BME280;43608;49.486;9.640;2022-12-24T00:48:41;98001.94;;;9.55;84.91
57779;BME280;43608;49.486;9.640;2022-12-24T00:49:12;97974.75;;;9.42;85.03
57779;BME280;43608;49.486;9.640;2022-12-24T00:49:42;98009.84;;;9.58;85.12
57779;BME280;43608;49.486;9.640;2022-12-24T00:50:13;98001.06;;;9.55;84.89
57779;BME280;43608;49.486;9.640;2022-12-24T00:50:43;97988.78;;;9.48;84.68
57779;BME280;43608;49.486;9.640;2022-12-24T00:51:14;98006.28;;;9.59;84.63
57779;BME280;43608;49.486;9.640;2022-12-24T00:51:45;98009.00;;;9.55;84.66
57779;BME280;43608;49.486;9.640;2022-12-24T00:52:15;97994.88;;;9.54;84.59
57779;BME280;43608;49.486;9.640;2022-12-24T00:52:45;98000.19;;;9.53;84.55
57779;BME280;43608;49.486;9.640;2022-12-24T00:53:16;98007.22;;;9.55;84.42
57779;BME280;43608;49.486;9.640;2022-12-24T00:53:48;98016.00;;;9.61;84.39
57779;BME280;43608;49.486;9.640;2022-12-24T00:54:18;98017.78;;;9.57;84.53
57779;BME280;43608;49.486;9.640;2022-12-24T00:54:49;97997.63;;;9.48;84.45
57779;BME280;43608;49.486;9.640;2022-12-24T00:55:19;98005.44;;;9.57;84.41
57779;BME280;43608;49.486;9.640;2022-12-24T00:55:49;98016.00;;;9.59;84.52
57779;BME280;43608;49.486;9.640;2022-12-24T00:56:20;98015.13;;;9.57;84.54
57779;BME280;43608;49.486;9.640;2022-12-24T00:56:51;98016.91;;;9.58;84.50
57779;BME280;43608;49.486;9.640;2022-12-24T00:57:21;97999.41;;;9.46;84.54
57779;BME280;43608;49.486;9.640;2022-12-24T00:57:52;98004.66;;;9.49;84.54
57779;BME280;43608;49.486;9.640;2022-12-24T00:58:22;98014.31;;;9.53;84.55
57779;BME280;43608;49.486;9.640;2022-12-24T00:58:52;98029.25;;;9.57;84.69
57779;BME280;43608;49.486;9.640;2022-12-24T00:59:23;98019.56;;;9.56;84.70
57779;BME280;43608;49.486;9.640;2022-12-24T00:59:53;98012.59;;;9.51;84.39
57779;BME280;43608;49.486;9.640;2022-12-24T01:00:23;98027.47;;;9.58;84.45
57779;BME280;43608;49.486;9.640;2022-12-24T01:00:54;98022.25;;;9.55;84.33
57779;BME280;43608;49.486;9.640;2022-12-24T01:01:25;98026.63;;;9.57;84.37
57779;BME280;43608;49.486;9.640;2022-12-24T01:01:55;97992.41;;;9.40;84.61
57779;BME280;43608;49.486;9.640;2022-12-24T01:02:25;98015.22;;;9.52;84.47
57779;BME280;43608;49.486;9.640;2022-12-24T01:02:56;98010.81;;;9.50;84.21
57779;BME280;43608;49.486;9.640;2022-12-24T01:03:26;98006.44;;;9.47;84.64
57779;BME280;43608;49.486;9.640;2022-12-24T01:04:06;98024.88;;;9.55;84.40
57779;BME280;43608;49.486;9.640;2022-12-24T01:04:55;98012.63;;;9.46;84.40
57779;BME280;43608;49.486;9.640;2022-12-24T01:05:40;98027.53;;;9.52;84.41
57779;BME280;43608;49.486;9.640;2022-12-24T01:06:14;98026.63;;;9.54;84.22
57779;BME280;43608;49.486;9.640;2022-12-24T01:06:44;98021.41;;;9.50;83.95
57779;BME280;43608;49.486;9.640;2022-12-24T01:07:15;98040.78;;;9.53;84.11
57779;BME280;43608;49.486;9.640;2022-12-24T01:07:46;98044.25;;;9.57;84.14
57779;BME280;43608;49.486;9.640;2022-12-24T01:08:16;98033.72;;;9.54;84.38
57779;BME280;43608;49.486;9.640;2022-12-24T01:08:50;98034.63;;;9.50;84.27
57779;BME280;43608;49.486;9.640;2022-12-24T01:09:21;98028.47;;;9.51;84.40
57779;BME280;43608;49.486;9.640;2022-12-24T01:09:51;98017.03;;;9.44;84.44
57779;BME280;43608;49.486;9.640;2022-12-24T01:10:21;98036.38;;;9.49;84.56
57779;BME280;43608;49.486;9.640;2022-12-24T01:10:52;98038.16;;;9.49;84.60
57779;BME280;43608;49.486;9.640;2022-12-24T01:11:22;98020.59;;;9.45;84.47
57779;BME280;43608;49.486;9.640;2022-12-24T01:11:52;98033.72;;;9.52;84.31
57779;BME280;43608;49.486;9.640;2022-12-24T01:12:23;98050.44;;;9.56;84.51
57779;BME280;43608;49.486;9.640;2022-12-24T01:12:54;98030.19;;;9.52;84.49
57779;BME280;43608;49.486;9.640;2022-12-24T01:13:24;98042.50;;;9.57;84.41
57779;BME280;43608;49.486;9.640;2022-12-24T01:13:55;98040.75;;;9.52;84.45
57779;BME280;43608;49.486;9.640;2022-12-24T01:14:25;98028.50;;;9.46;84.53
57779;BME280;43608;49.486;9.640;2022-12-24T01:14:56;98046.03;;;9.56;84.49
57779;BME280;43608;49.486;9.640;2022-12-24T01:15:26;97960.16;;;9.06;84.65
57779;BME280;43608;49.486;9.640;2022-12-24T01:15:56;98027.63;;;9.46;84.69
57779;BME280;43608;49.486;9.640;2022-12-24T01:16:27;98047.78;;;9.57;84.57
57779;BME280;43608;49.486;9.640;2022-12-24T01:16:57;97987.28;;;9.22;84.91
57779;BME280;43608;49.486;9.640;2022-12-24T01:17:30;98023.25;;;9.40;84.83
57779;BME280;43608;49.486;9.640;2022-12-24T01:18:01;98021.47;;;9.43;85.04
57779;BME280;43608;49.486;9.640;2022-12-24T01:18:32;98040.75;;;9.52;84.80
57779;BME280;43608;49.486;9.640;2022-12-24T01:19:03;98038.13;;;9.53;85.19
57779;BME280;43608;49.486;9.640;2022-12-24T01:19:33;98046.03;;;9.55;85.02
57779;BME280;43608;49.486;9.640;2022-12-24T01:20:06;98036.44;;;9.45;85.24
57779;BME280;43608;49.486;9.640;2022-12-24T01:20:36;98025.00;;;9.42;85.21
57779;BME280;43608;49.486;9.640;2022-12-24T01:21:07;98037.31;;;9.48;85.24
57779;BME280;43608;49.486;9.640;2022-12-24T01:21:37;98043.44;;;9.50;85.22
57779;BME280;43608;49.486;9.640;2022-12-24T01:22:08;98057.50;;;9.55;85.28
57779;BME280;43608;49.486;9.640;2022-12-24T01:22:38;98043.44;;;9.50;85.37
57779;BME280;43608;49.486;9.640;2022-12-24T01:23:08;98048.69;;;9.52;85.35
57779;BME280;43608;49.486;9.640;2022-12-24T01:23:39;98046.97;;;9.49;85.35
57779;BME280;43608;49.486;9.640;2022-12-24T01:24:13;98059.28;;;9.55;85.33
57779;BME280;43608;49.486;9.640;2022-12-24T01:24:44;98039.13;;;9.40;85.21
57779;BME280;43608;49.486;9.640;2022-12-24T01:25:14;98038.31;;;9.36;85.16
57779;BME280;43608;49.486;9.640;2022-12-24T01:25:44;98066.34;;;9.53;85.08
57779;BME280;43608;49.486;9.640;2022-12-24T01:26:15;98058.47;;;9.48;85.32
57779;BME280;43608;49.486;9.640;2022-12-24T01:26:46;98067.25;;;9.50;85.30
57779;BME280;43608;49.486;9.640;2022-12-24T01:27:16;98059.31;;;9.49;85.56
57779;BME280;43608;49.486;9.640;2022-12-24T01:27:46;98049.72;;;9.38;85.28
57779;BME280;43608;49.486;9.640;2022-12-24T01:28:17;98058.53;;;9.42;85.21
57779;BME280;43608;49.486;9.640;2022-12-24T01:28:48;98048.00;;;9.34;85.36
57779;BME280;43608;49.486;9.640;2022-12-24T01:29:18;98057.66;;;9.40;85.29
57779;BME280;43608;49.486;9.640;2022-12-24T01:29:48;98053.28;;;9.36;85.26
57779;BME280;43608;49.486;9.640;2022-12-24T01:30:19;98065.59;;;9.38;85.40
57779;BME280;43608;49.486;9.640;2022-12-24T01:30:49;98077.00;;;9.43;85.25
57779;BME280;43608;49.486;9.640;2022-12-24T01:31:20;98017.44;;;9.05;85.16
57779;BME280;43608;49.486;9.640;2022-12-24T01:31:50;98074.31;;;9.47;85.43
57779;BME280;43608;49.486;9.640;2022-12-24T01:32:20;98061.22;;;9.34;85.36
57779;BME280;43608;49.486;9.640;2022-12-24T01:32:51;98072.63;;;9.41;85.40
57779;BME280;43608;49.486;9.640;2022-12-24T01:33:21;98069.97;;;9.41;85.41
57779;BME280;43608;49.486;9.640;2022-12-24T01:33:51;98070.88;;;9.40;85.47
57779;BME280;43608;49.486;9.640;2022-12-24T01:34:22;98051.56;;;9.30;85.35
57779;BME280;43608;49.486;9.640;2022-12-24T01:34:52;98060.34;;;9.35;85.53
57779;BME280;43608;49.486;9.640;2022-12-24T01:35:23;98055.97;;;9.30;85.38
57779;BME280;43608;49.486;9.640;2022-12-24T01:35:53;98057.72;;;9.31;85.54
57779;BME280;43608;49.486;9.640;2022-12-24T01:36:23;98070.03;;;9.38;85.51
57779;BME280;43608;49.486;9.640;2022-12-24T01:36:54;98077.06;;;9.40;85.58
57779;BME280;43608;49.486;9.640;2022-12-24T01:37:24;98076.13;;;9.41;85.74
57779;BME280;43608;49.486;9.640;2022-12-24T01:37:54;98065.66;;;9.34;85.77
57779;BME280;43608;49.486;9.640;2022-12-24T01:38:25;98062.16;;;9.30;85.45
57779;BME280;43608;49.486;9.640;2022-12-24T01:38:55;98075.31;;;9.38;85.75
57779;BME280;43608;49.486;9.640;2022-12-24T01:39:25;98069.16;;;9.36;85.81
57779;BME280;43608;49.486;9.640;2022-12-24T01:39:56;98076.19;;;9.37;85.94
57779;BME280;43608;49.486;9.640;2022-12-24T01:40:46;98084.13;;;9.37;85.89
57779;BME280;43608;49.486;9.640;2022-12-24T01:41:35;98072.69;;;9.33;85.97
57779;BME280;43608;49.486;9.640;2022-12-24T01:42:24;98075.31;;;9.35;85.86
57779;BME280;43608;49.486;9.640;2022-12-24T01:43:18;98071.03;;;9.23;85.79
57779;BME280;43608;49.486;9.640;2022-12-24T01:43:54;98086.78;;;9.37;85.82
57779;BME280;43608;49.486;9.640;2022-12-24T01:44:29;98083.28;;;9.36;86.06
57779;BME280;43608;49.486;9.640;2022-12-24T01:45:34;98091.19;;;9.35;86.08
57779;BME280;43608;49.486;9.640;2022-12-24T01:46:44;98063.13;;;9.17;86.23
57779;BME280;43608;49.486;9.640;2022-12-24T01:47:19;98088.53;;;9.35;86.18
57779;BME280;43608;49.486;9.640;2022-12-24T01:47:51;98093.00;;;9.33;86.28
57779;BME280;43608;49.486;9.640;2022-12-24T01:49:27;98096.50;;;9.32;86.44
57779;BME280;43608;49.486;9.640;2022-12-24T01:50:01;98067.56;;;9.15;86.36
57779;BME280;43608;49.486;9.640;2022-12-24T01:50:33;98091.25;;;9.30;86.56
57779;BME280;43608;49.486;9.640;2022-12-24T01:51:58;98085.13;;;9.23;86.50
57779;BME280;43608;49.486;9.640;2022-12-24T01:52:33;98107.09;;;9.32;86.57
57779;BME280;43608;49.486;9.640;2022-12-24T01:53:05;98080.75;;;9.18;86.44
57779;BME280;43608;49.486;9.640;2022-12-24T01:53:38;98103.59;;;9.31;86.54
57779;BME280;43608;49.486;9.640;2022-12-24T01:54:10;98106.22;;;9.31;86.61
57779;BME280;43608;49.486;9.640;2022-12-24T01:55:04;98097.41;;;9.29;86.38
57779;BME280;43608;49.486;9.640;2022-12-24T01:55:36;98085.16;;;9.19;86.56
57779;BME280;43608;49.486;9.640;2022-12-24T01:56:06;98100.06;;;9.29;86.59
57779;BME280;43608;49.486;9.640;2022-12-24T01:56:44;98087.78;;;9.20;86.62
57779;BME280;43608;49.486;9.640;2022-12-24T01:57:25;98088.69;;;9.21;86.43
57779;BME280;43608;49.486;9.640;2022-12-24T01:57:58;98087.84;;;9.14;86.64
57779;BME280;43608;49.486;9.640;2022-12-24T01:58:31;98103.63;;;9.25;86.67
57779;BME280;43608;49.486;9.640;2022-12-24T01:59:09;98106.31;;;9.19;86.76
57779;BME280;43608;49.486;9.640;2022-12-24T01:59:43;98106.31;;;9.19;86.61
57779;BME280;43608;49.486;9.640;2022-12-24T02:00:15;98105.44;;;9.20;86.60
57779;BME280;43608;49.486;9.640;2022-12-24T02:00:46;98100.16;;;9.17;86.51
57779;BME280;43608;49.486;9.640;2022-12-24T02:01:16;98116.88;;;9.23;86.73
57779;BME280;43608;49.486;9.640;2022-12-24T02:01:48;98089.66;;;9.09;86.55
57779;BME280;43608;49.486;9.640;2022-12-24T02:02:19;98105.44;;;9.15;86.54
57779;BME280;43608;49.486;9.640;2022-12-24T02:02:51;98114.22;;;9.20;86.68
57779;BME280;43608;49.486;9.640;2022-12-24T02:03:23;98108.09;;;9.17;86.60
57779;BME280;43608;49.486;9.640;2022-12-24T02:03:53;98116.91;;;9.17;86.51
57779;BME280;43608;49.486;9.640;2022-12-24T02:04:35;98133.63;;;9.22;86.51
57779;BME280;43608;49.486;9.640;2022-12-24T02:05:28;98125.72;;;9.16;86.62
57779;BME280;43608;49.486;9.640;2022-12-24T02:06:00;98120.44;;;9.16;86.54
57779;BME280;43608;49.486;9.640;2022-12-24T02:06:30;98037.16;;;8.59;86.34
57779;BME280;43608;49.486;9.640;2022-12-24T02:07:01;98121.38;;;9.11;86.25
57779;BME280;43608;49.486;9.640;2022-12-24T02:07:32;98131.88;;;9.18;86.03
57779;BME280;43608;49.486;9.640;2022-12-24T02:08:03;98128.38;;;9.12;86.07
57779;BME280;43608;49.486;9.640;2022-12-24T02:08:34;98112.56;;;9.07;86.07
57779;BME280;43608;49.486;9.640;2022-12-24T02:09:11;98137.16;;;9.17;85.80
57779;BME280;43608;49.486;9.640;2022-12-24T02:09:41;98121.41;;;9.04;85.76
57779;BME280;43608;49.486;9.640;2022-12-24T02:10:13;98133.69;;;9.10;85.78
57779;BME280;43608;49.486;9.640;2022-12-24T02:10:45;98145.13;;;9.18;85.74
57779;BME280;43608;49.486;9.640;2022-12-24T02:11:18;98153.94;;;9.17;85.93
57779;BME280;43608;49.486;9.640;2022-12-24T02:11:49;98136.34;;;9.08;85.91
57779;BME280;43608;49.486;9.640;2022-12-24T02:12:19;98137.25;;;9.06;85.67
57779;BME280;43608;49.486;9.640;2022-12-24T02:12:50;98144.28;;;9.08;85.68
57779;BME280;43608;49.486;9.640;2022-12-24T02:13:21;98153.06;;;9.12;85.61
57779;BME280;43608;49.486;9.640;2022-12-24T02:13:54;98153.06;;;9.12;85.42
57779;BME280;43608;49.486;9.640;2022-12-24T02:14:28;98148.66;;;9.11;85.59
57779;BME280;43608;49.486;9.640;2022-12-24T02:15:02;98147.81;;;9.06;85.47
57779;BME280;43608;49.486;9.640;2022-12-24T02:15:57;98146.03;;;9.09;85.65
57779;BME280;43608;49.486;9.640;2022-12-24T02:16:39;98155.75;;;9.11;85.57
57779;BME280;43608;49.486;9.640;2022-12-24T02:17:28;98152.25;;;9.02;85.29
57779;BME280;43608;49.486;9.640;2022-12-24T02:18:10;98132.91;;;8.97;85.33
57779;BME280;43608;49.486;9.640;2022-12-24T02:25:32;98167.25;;;9.00;84.63
57779;BME280;43608;49.486;9.640;2022-12-24T02:26:35;98166.41;;;8.97;84.52
57779;BME280;43608;49.486;9.640;2022-12-24T02:27:21;98167.28;;;8.96;84.41
57779;BME280;43608;49.486;9.640;2022-12-24T02:29:21;98164.66;;;8.92;84.34
57779;BME280;43608;49.486;9.640;2022-12-24T02:30:19;98136.59;;;8.71;83.63
57779;BME280;43608;49.486;9.640;2022-12-24T02:30:53;98139.19;;;8.76;83.62
57779;BME280;43608;49.486;9.640;2022-12-24T02:31:35;98178.75;;;8.91;83.56
57779;BME280;43608;49.486;9.640;2022-12-24T02:32:11;98171.72;;;8.90;83.63
57779;BME280;43608;49.486;9.640;2022-12-24T02:33:44;98176.16;;;8.82;83.54
57779;BME280;43608;49.486;9.640;2022-12-24T02:34:37;98156.84;;;8.74;83.33
57779;BME280;43608;49.486;9.640;2022-12-24T02:36:32;98159.47;;;8.71;83.11
57779;BME280;43608;49.486;9.640;2022-12-24T02:37:54;98172.69;;;8.75;82.84
57779;BME280;43608;49.486;9.640;2022-12-24T02:39:13;98142.84;;;8.56;82.86
57779;BME280;43608;49.486;9.640;2022-12-24T02:39:57;98181.47;;;8.77;82.90
57779;BME280;43608;49.486;9.640;2022-12-24T02:40:36;98149.84;;;8.60;82.96
57779;BME280;43608;49.486;9.640;2022-12-24T02:41:36;98178.84;;;8.74;82.96
57779;BME280;43608;49.486;9.640;2022-12-24T02:42:34;98180.63;;;8.71;82.66
57779;BME280;43608;49.486;9.640;2022-12-24T02:43:17;98178.88;;;8.71;82.54
57779;BME280;43608;49.486;9.640;2022-12-24T02:43:49;98167.47;;;8.62;82.75
57779;BME280;43608;49.486;9.640;2022-12-24T02:44:23;98169.22;;;8.64;82.65
57779;BME280;43608;49.486;9.640;2022-12-24T02:45:03;98178.88;;;8.68;82.69
57779;BME280;43608;49.486;9.640;2022-12-24T02:45:35;98163.06;;;8.60;82.71
57779;BME280;43608;49.486;9.640;2022-12-24T02:46:15;98180.66;;;8.68;82.59
57779;BME280;43608;49.486;9.640;2022-12-24T02:46:46;98175.38;;;8.62;82.68
57779;BME280;43608;49.486;9.640;2022-12-24T02:47:18;98175.38;;;8.66;82.46
57779;BME280;43608;49.486;9.640;2022-12-24T02:47:51;98174.50;;;8.59;82.66
57779;BME280;43608;49.486;9.640;2022-12-24T02:48:23;98184.16;;;8.67;82.30
57779;BME280;43608;49.486;9.640;2022-12-24T02:48:55;98173.63;;;8.64;82.38
57779;BME280;43608;49.486;9.640;2022-12-24T02:49:25;98183.28;;;8.65;82.00
57779;BME280;43608;49.486;9.640;2022-12-24T02:49:56;98183.31;;;8.66;82.25
57779;BME280;43608;49.486;9.640;2022-12-24T02:50:26;98196.50;;;8.68;82.16
57779;BME280;43608;49.486;9.640;2022-12-24T02:51:01;98184.19;;;8.64;82.34
57779;BME280;43608;49.486;9.640;2022-12-24T02:51:32;98186.84;;;8.64;82.12
57779;BME280;43608;49.486;9.640;2022-12-24T02:52:03;98161.34;;;8.49;81.99
57779;BME280;43608;49.486;9.640;2022-12-24T02:52:37;98193.88;;;8.66;82.08
57779;BME280;43608;49.486;9.640;2022-12-24T02:53:08;98198.25;;;8.66;82.00
57779;BME280;43608;49.486;9.640;2022-12-24T02:53:39;98185.97;;;8.60;81.83
57779;BME280;43608;49.486;9.640;2022-12-24T02:54:10;98178.91;;;8.62;82.05
57779;BME280;43608;49.486;9.640;2022-12-24T02:54:41;98192.13;;;8.64;82.14
57779;BME280;43608;49.486;9.640;2022-12-24T02:55:22;98179.81;;;8.56;82.19
57779;BME280;43608;49.486;9.640;2022-12-24T02:57:22;98195.63;;;8.59;82.20
57779;BME280;43608;49.486;9.640;2022-12-24T02:58:33;98174.56;;;8.49;81.83
57779;BME280;43608;49.486;9.640;2022-12-24T03:00:25;98171.03;;;8.50;82.22
57779;BME280;43608;49.486;9.640;2022-12-24T03:03:33;98170.16;;;8.46;81.90
57779;BME280;43608;49.486;9.640;2022-12-24T03:05:33;98188.66;;;8.51;82.10
57779;BME280;43608;49.486;9.640;2022-12-24T03:06:20;98171.06;;;8.40;81.68
57779;BME280;43608;49.486;9.640;2022-12-24T03:07:03;98184.25;;;8.50;81.84
57779;BME280;43608;49.486;9.640;2022-12-24T03:07:45;98170.19;;;8.35;81.90
57779;BME280;43608;49.486;9.640;2022-12-24T03:09:46;98167.56;;;8.34;81.81
57779;BME280;43608;49.486;9.640;2022-12-24T03:11:02;98188.63;;;8.44;81.72
57779;BME280;43608;49.486;9.640;2022-12-24T03:11:35;98172.81;;;8.35;81.92
57779;BME280;43608;49.486;9.640;2022-12-24T03:12:15;98184.25;;;8.40;81.91
57779;BME280;43608;49.486;9.640;2022-12-24T03:12:53;98195.69;;;8.44;81.88
57779;BME280;43608;49.486;9.640;2022-12-24T03:13:26;98190.44;;;8.38;81.96
57779;BME280;43608;49.486;9.640;2022-12-24T03:13:58;98194.81;;;8.39;81.85
57779;BME280;43608;49.486;9.640;2022-12-24T03:14:29;98195.69;;;8.41;81.90
57779;BME280;43608;49.486;9.640;2022-12-24T03:15:02;98200.97;;;8.39;81.99
57779;BME280;43608;49.486;9.640;2022-12-24T03:15:35;98181.66;;;8.31;82.04
57779;BME280;43608;49.486;9.640;2022-12-24T03:16:09;98200.09;;;8.42;81.99
57779;BME280;43608;49.486;9.640;2022-12-24T03:16:41;98199.19;;;8.40;82.11
57779;BME280;43608;49.486;9.640;2022-12-24T03:17:13;98191.31;;;8.31;82.21
57779;BME280;43608;49.486;9.640;2022-12-24T03:17:46;98194.84;;;8.28;82.11
57779;BME280;43608;49.486;9.640;2022-12-24T03:18:21;98210.66;;;8.39;82.19
57779;BME280;43608;49.486;9.640;2022-12-24T03:18:54;98206.28;;;8.38;82.28
57779;BME280;43608;49.486;9.640;2022-12-24T03:19:26;98200.13;;;8.31;82.29
57779;BME280;43608;49.486;9.640;2022-12-24T03:19:57;98203.63;;;8.35;82.26
57779;BME280;43608;49.486;9.640;2022-12-24T03:20:37;98213.31;;;8.36;82.29
57779;BME280;43608;49.486;9.640;2022-12-24T03:21:13;98207.16;;;8.31;82.35
57779;BME280;43608;49.486;9.640;2022-12-24T03:21:44;98214.19;;;8.35;82.47